sensor_id;sensor_type;location;lat;lon;timestamp;temperature;humidity
45233;DHT22;30969;51.052;17.056;2023-03-21T00:01:34;13.70;71.40
45233;DHT22;30969;51.052;17.056;2023-03-21T00:06:37;13.70;71.30
45233;DHT22;30969;51.052;17.056;2023-03-21T00:11:41;13.70;71.40
45233;DHT22;30969;51.052;17.056;2023-03-21T00:16:47;13.70;71.50
45233;DHT22;30969;51.052;17.056;2023-03-21T00:21:52;13.70;71.50
45233;DHT22;30969;51.052;17.056;2023-03-21T00:27:09;13.70;71.50
45233;DHT22;30969;51.052;17.056;2023-03-21T00:32:34;13.70;71.50
45233;DHT22;30969;51.052;17.056;2023-03-21T00:37:50;13.60;71.40
45233;DHT22;30969;51.052;17.056;2023-03-21T00:42:53;13.70;71.50
45233;DHT22;30969;51.052;17.056;2023-03-21T00:47:58;13.70;71.50
45233;DHT22;30969;51.052;17.056;2023-03-21T00:53:02;13.60;71.50
45233;DHT22;30969;51.052;17.056;2023-03-21T00:58:06;13.60;71.70
45233;DHT22;30969;51.052;17.056;2023-03-21T01:03:12;13.60;71.80
45233;DHT22;30969;51.052;17.056;2023-03-21T01:08:27;13.50;72.00
45233;DHT22;30969;51.052;17.056;2023-03-21T01:13:42;13.50;72.10
45233;DHT22;30969;51.052;17.056;2023-03-21T01:18:58;13.50;72.20
45233;DHT22;30969;51.052;17.056;2023-03-21T01:24:06;13.40;72.30
45233;DHT22;30969;51.052;17.056;2023-03-21T01:29:10;13.20;72.40
45233;DHT22;30969;51.052;17.056;2023-03-21T01:34:15;13.00;72.50
45233;DHT22;30969;51.052;17.056;2023-03-21T01:39:19;12.90;72.40
45233;DHT22;30969;51.052;17.056;2023-03-21T01:44:22;12.80;73.10
45233;DHT22;30969;51.052;17.056;2023-03-21T01:49:30;12.70;72.40
45233;DHT22;30969;51.052;17.056;2023-03-21T01:54:37;12.70;72.40
45233;DHT22;30969;51.052;17.056;2023-03-21T01:59:43;12.80;73.20
45233;DHT22;30969;51.052;17.056;2023-03-21T02:04:49;12.80;71.90
45233;DHT22;30969;51.052;17.056;2023-03-21T02:09:57;12.70;71.60
45233;DHT22;30969;51.052;17.056;2023-03-21T02:15:01;12.70;71.70
45233;DHT22;30969;51.052;17.056;2023-03-21T02:26:25;12.50;72.10
45233;DHT22;30969;51.052;17.056;2023-03-21T02:31:46;12.40;72.40
45233;DHT22;30969;51.052;17.056;2023-03-21T02:37:04;12.40;72.40
45233;DHT22;30969;51.052;17.056;2023-03-21T02:42:16;12.40;72.40
45233;DHT22;30969;51.052;17.056;2023-03-21T02:47:25;12.50;72.50
45233;DHT22;30969;51.052;17.056;2023-03-21T02:52:34;12.50;72.40
45233;DHT22;30969;51.052;17.056;2023-03-21T02:57:42;12.50;72.60
45233;DHT22;30969;51.052;17.056;2023-03-21T03:02:48;12.50;72.90
45233;DHT22;30969;51.052;17.056;2023-03-21T03:08:17;12.50;73.00
45233;DHT22;30969;51.052;17.056;2023-03-21T03:13:48;12.50;73.30
45233;DHT22;30969;51.052;17.056;2023-03-21T03:18:56;12.50;73.50
45233;DHT22;30969;51.052;17.056;2023-03-21T03:24:05;12.40;73.70
45233;DHT22;30969;51.052;17.056;2023-03-21T03:29:13;12.40;73.90
45233;DHT22;30969;51.052;17.056;2023-03-21T03:34:19;12.30;74.10
45233;DHT22;30969;51.052;17.056;2023-03-21T03:39:32;12.30;74.20
45233;DHT22;30969;51.052;17.056;2023-03-21T03:44:37;12.30;74.20
45233;DHT22;30969;51.052;17.056;2023-03-21T03:49:45;12.30;74.30
45233;DHT22;30969;51.052;17.056;2023-03-21T03:54:51;12.30;74.20
45233;DHT22;30969;51.052;17.056;2023-03-21T03:59:55;12.30;74.00
45233;DHT22;30969;51.052;17.056;2023-03-21T04:05:00;12.30;73.90
45233;DHT22;30969;51.052;17.056;2023-03-21T04:10:07;12.40;73.80
45233;DHT22;30969;51.052;17.056;2023-03-21T04:15:11;12.40;73.80
45233;DHT22;30969;51.052;17.056;2023-03-21T04:20:15;12.30;74.00
45233;DHT22;30969;51.052;17.056;2023-03-21T04:25:38;12.30;74.20
45233;DHT22;30969;51.052;17.056;2023-03-21T04:30:57;12.20;74.40
45233;DHT22;30969;51.052;17.056;2023-03-21T04:36:10;12.20;74.60
45233;DHT22;30969;51.052;17.056;2023-03-21T04:41:29;12.10;74.60
45233;DHT22;30969;51.052;17.056;2023-03-21T04:46:33;12.10;75.10
45233;DHT22;30969;51.052;17.056;2023-03-21T04:51:37;12.00;75.40
45233;DHT22;30969;51.052;17.056;2023-03-21T04:56:41;11.90;75.70
45233;DHT22;30969;51.052;17.056;2023-03-21T05:01:46;11.90;75.80
45233;DHT22;30969;51.052;17.056;2023-03-21T05:06:51;11.90;75.80
45233;DHT22;30969;51.052;17.056;2023-03-21T05:11:56;11.90;75.80
45233;DHT22;30969;51.052;17.056;2023-03-21T05:16:59;11.80;75.90
45233;DHT22;30969;51.052;17.056;2023-03-21T05:22:08;11.80;76.00
45233;DHT22;30969;51.052;17.056;2023-03-21T05:27:14;11.80;76.20
45233;DHT22;30969;51.052;17.056;2023-03-21T05:32:36;11.80;76.20
45233;DHT22;30969;51.052;17.056;2023-03-21T05:37:39;11.90;76.30
45233;DHT22;30969;51.052;17.056;2023-03-21T05:42:45;11.90;76.30
45233;DHT22;30969;51.052;17.056;2023-03-21T05:47:50;11.90;76.30
45233;DHT22;30969;51.052;17.056;2023-03-21T05:52:53;11.90;76.60
45233;DHT22;30969;51.052;17.056;2023-03-21T05:57:58;11.90;76.60
45233;DHT22;30969;51.052;17.056;2023-03-21T06:03:01;11.80;76.70
45233;DHT22;30969;51.052;17.056;2023-03-21T06:08:05;11.90;76.70
45233;DHT22;30969;51.052;17.056;2023-03-21T06:13:10;11.90;76.80
45233;DHT22;30969;51.052;17.056;2023-03-21T06:18:13;11.90;76.80
45233;DHT22;30969;51.052;17.056;2023-03-21T06:23:17;11.90;76.90
45233;DHT22;30969;51.052;17.056;2023-03-21T06:28:22;11.90;76.80
45233;DHT22;30969;51.052;17.056;2023-03-21T06:33:26;11.90;76.70
45233;DHT22;30969;51.052;17.056;2023-03-21T06:38:30;11.90;76.80
45233;DHT22;30969;51.052;17.056;2023-03-21T06:43:34;11.80;77.10
45233;DHT22;30969;51.052;17.056;2023-03-21T06:48:38;11.80;77.10
45233;DHT22;30969;51.052;17.056;2023-03-21T06:53:45;11.80;77.20
45233;DHT22;30969;51.052;17.056;2023-03-21T06:58:50;11.80;77.20
45233;DHT22;30969;51.052;17.056;2023-03-21T07:03:54;11.80;77.20
45233;DHT22;30969;51.052;17.056;2023-03-21T07:08:59;11.80;76.70
45233;DHT22;30969;51.052;17.056;2023-03-21T07:14:05;11.80;76.20
45233;DHT22;30969;51.052;17.056;2023-03-21T07:19:09;11.70;76.80
45233;DHT22;30969;51.052;17.056;2023-03-21T07:24:12;11.70;75.10
45233;DHT22;30969;51.052;17.056;2023-03-21T07:29:17;11.70;75.30
45233;DHT22;30969;51.052;17.056;2023-03-21T07:34:22;11.60;75.40
45233;DHT22;30969;51.052;17.056;2023-03-21T07:39:26;11.60;75.30
45233;DHT22;30969;51.052;17.056;2023-03-21T07:44:32;11.60;75.70
45233;DHT22;30969;51.052;17.056;2023-03-21T07:49:36;11.60;76.10
45233;DHT22;30969;51.052;17.056;2023-03-21T07:54:39;11.60;76.10
45233;DHT22;30969;51.052;17.056;2023-03-21T07:59:44;11.70;77.20
45233;DHT22;30969;51.052;17.056;2023-03-21T08:04:48;11.70;76.50
45233;DHT22;30969;51.052;17.056;2023-03-21T08:09:51;11.70;76.60
45233;DHT22;30969;51.052;17.056;2023-03-21T08:14:56;11.80;76.40
45233;DHT22;30969;51.052;17.056;2023-03-21T08:20:02;11.90;76.50
45233;DHT22;30969;51.052;17.056;2023-03-21T08:25:10;12.00;76.40
45233;DHT22;30969;51.052;17.056;2023-03-21T08:30:18;12.00;77.40
45233;DHT22;30969;51.052;17.056;2023-03-21T08:35:22;12.00;76.60
45233;DHT22;30969;51.052;17.056;2023-03-21T08:40:25;12.10;76.50
45233;DHT22;30969;51.052;17.056;2023-03-21T08:45:30;12.10;76.50
45233;DHT22;30969;51.052;17.056;2023-03-21T08:50:34;12.20;76.30
45233;DHT22;30969;51.052;17.056;2023-03-21T08:55:38;12.20;75.80
45233;DHT22;30969;51.052;17.056;2023-03-21T09:00:42;12.20;75.70
45233;DHT22;30969;51.052;17.056;2023-03-21T09:05:52;12.20;74.80
45233;DHT22;30969;51.052;17.056;2023-03-21T09:10:56;12.00;75.20
45233;DHT22;30969;51.052;17.056;2023-03-21T09:16:01;12.00;75.70
45233;DHT22;30969;51.052;17.056;2023-03-21T09:21:08;12.00;75.40
45233;DHT22;30969;51.052;17.056;2023-03-21T09:26:14;11.90;75.50
45233;DHT22;30969;51.052;17.056;2023-03-21T09:31:20;11.90;75.90
45233;DHT22;30969;51.052;17.056;2023-03-21T09:36:25;12.00;75.60
45233;DHT22;30969;51.052;17.056;2023-03-21T09:41:39;12.00;75.80
45233;DHT22;30969;51.052;17.056;2023-03-21T09:46:52;12.00;75.90
45233;DHT22;30969;51.052;17.056;2023-03-21T09:51:58;12.00;75.50
45233;DHT22;30969;51.052;17.056;2023-03-21T09:57:13;12.00;74.80
45233;DHT22;30969;51.052;17.056;2023-03-21T10:02:34;11.90;73.50
45233;DHT22;30969;51.052;17.056;2023-03-21T10:07:41;11.90;74.50
45233;DHT22;30969;51.052;17.056;2023-03-21T10:12:46;12.00;74.20
45233;DHT22;30969;51.052;17.056;2023-03-21T10:17:56;12.10;73.20
45233;DHT22;30969;51.052;17.056;2023-03-21T10:23:04;12.00;72.30
45233;DHT22;30969;51.052;17.056;2023-03-21T10:28:14;11.90;73.40
45233;DHT22;30969;51.052;17.056;2023-03-21T10:33:22;12.00;73.10
45233;DHT22;30969;51.052;17.056;2023-03-21T10:38:27;12.00;72.50
45233;DHT22;30969;51.052;17.056;2023-03-21T10:43:34;12.10;72.00
45233;DHT22;30969;51.052;17.056;2023-03-21T10:48:41;12.00;71.00
45233;DHT22;30969;51.052;17.056;2023-03-21T10:53:51;12.10;71.20
45233;DHT22;30969;51.052;17.056;2023-03-21T10:58:58;12.30;71.20
45233;DHT22;30969;51.052;17.056;2023-03-21T11:04:06;12.40;71.30
45233;DHT22;30969;51.052;17.056;2023-03-21T11:09:15;12.50;69.60
45233;DHT22;30969;51.052;17.056;2023-03-21T11:14:34;12.60;70.00
45233;DHT22;30969;51.052;17.056;2023-03-21T11:19:39;12.70;69.30
45233;DHT22;30969;51.052;17.056;2023-03-21T11:24:47;12.80;68.30
45233;DHT22;30969;51.052;17.056;2023-03-21T11:29:51;12.70;66.40
45233;DHT22;30969;51.052;17.056;2023-03-21T11:34:59;12.60;65.40
45233;DHT22;30969;51.052;17.056;2023-03-21T11:40:18;12.60;66.80
45233;DHT22;30969;51.052;17.056;2023-03-21T11:45:24;12.60;65.60
45233;DHT22;30969;51.052;17.056;2023-03-21T11:50:32;12.60;66.70
45233;DHT22;30969;51.052;17.056;2023-03-21T11:55:44;12.70;66.50
45233;DHT22;30969;51.052;17.056;2023-03-21T12:00:53;12.80;66.80
45233;DHT22;30969;51.052;17.056;2023-03-21T12:06:06;12.80;66.60
45233;DHT22;30969;51.052;17.056;2023-03-21T12:11:18;12.90;66.60
45233;DHT22;30969;51.052;17.056;2023-03-21T12:16:30;13.00;66.20
45233;DHT22;30969;51.052;17.056;2023-03-21T12:21:44;13.00;65.20
45233;DHT22;30969;51.052;17.056;2023-03-21T12:26:57;12.90;65.20
45233;DHT22;30969;51.052;17.056;2023-03-21T12:32:12;13.00;65.30
45233;DHT22;30969;51.052;17.056;2023-03-21T12:37:20;13.00;65.30
45233;DHT22;30969;51.052;17.056;2023-03-21T12:42:45;13.10;65.10
45233;DHT22;30969;51.052;17.056;2023-03-21T12:47:59;13.10;64.30
45233;DHT22;30969;51.052;17.056;2023-03-21T12:53:16;13.10;64.20
45233;DHT22;30969;51.052;17.056;2023-03-21T12:58:23;13.30;64.80
45233;DHT22;30969;51.052;17.056;2023-03-21T13:03:32;13.50;64.30
45233;DHT22;30969;51.052;17.056;2023-03-21T13:08:46;13.70;63.60
45233;DHT22;30969;51.052;17.056;2023-03-21T13:13:55;13.90;62.50
45233;DHT22;30969;51.052;17.056;2023-03-21T13:19:13;14.00;61.50
45233;DHT22;30969;51.052;17.056;2023-03-21T13:24:24;14.10;61.60
45233;DHT22;30969;51.052;17.056;2023-03-21T13:29:31;14.10;59.70
45233;DHT22;30969;51.052;17.056;2023-03-21T13:34:37;14.20;60.50
45233;DHT22;30969;51.052;17.056;2023-03-21T13:39:45;14.30;60.40
45233;DHT22;30969;51.052;17.056;2023-03-21T13:44:52;14.50;60.90
45233;DHT22;30969;51.052;17.056;2023-03-21T13:50:20;14.70;61.40
45233;DHT22;30969;51.052;17.056;2023-03-21T13:55:27;14.80;59.30
45233;DHT22;30969;51.052;17.056;2023-03-21T14:00:38;14.70;58.50
45233;DHT22;30969;51.052;17.056;2023-03-21T14:05:48;14.70;59.20
45233;DHT22;30969;51.052;17.056;2023-03-21T14:11:04;14.70;57.10
45233;DHT22;30969;51.052;17.056;2023-03-21T14:16:11;14.70;58.50
45233;DHT22;30969;51.052;17.056;2023-03-21T14:21:18;14.70;57.40
45233;DHT22;30969;51.052;17.056;2023-03-21T14:26:29;14.60;57.50
45233;DHT22;30969;51.052;17.056;2023-03-21T14:31:34;14.60;58.10
45233;DHT22;30969;51.052;17.056;2023-03-21T14:36:38;14.60;58.00
45233;DHT22;30969;51.052;17.056;2023-03-21T14:41:52;14.60;58.00
45233;DHT22;30969;51.052;17.056;2023-03-21T14:47:00;14.60;57.60
45233;DHT22;30969;51.052;17.056;2023-03-21T14:52:08;14.50;58.30
45233;DHT22;30969;51.052;17.056;2023-03-21T14:57:18;14.60;58.20
45233;DHT22;30969;51.052;17.056;2023-03-21T15:02:26;14.50;58.30
45233;DHT22;30969;51.052;17.056;2023-03-21T15:07:32;14.50;58.20
45233;DHT22;30969;51.052;17.056;2023-03-21T15:12:37;14.50;58.50
45233;DHT22;30969;51.052;17.056;2023-03-21T15:17:52;14.60;58.80
45233;DHT22;30969;51.052;17.056;2023-03-21T15:23:00;14.60;58.90
45233;DHT22;30969;51.052;17.056;2023-03-21T15:28:06;14.60;58.50
45233;DHT22;30969;51.052;17.056;2023-03-21T15:33:11;14.60;59.50
45233;DHT22;30969;51.052;17.056;2023-03-21T15:38:27;14.60;58.70
45233;DHT22;30969;51.052;17.056;2023-03-21T15:43:38;14.60;58.50
45233;DHT22;30969;51.052;17.056;2023-03-21T15:48:42;14.60;58.40
45233;DHT22;30969;51.052;17.056;2023-03-21T15:53:45;14.60;58.40
45233;DHT22;30969;51.052;17.056;2023-03-21T15:58:51;14.50;58.30
45233;DHT22;30969;51.052;17.056;2023-03-21T16:03:56;14.50;58.30
45233;DHT22;30969;51.052;17.056;2023-03-21T16:09:09;14.50;58.70
45233;DHT22;30969;51.052;17.056;2023-03-21T16:14:16;14.40;58.60
45233;DHT22;30969;51.052;17.056;2023-03-21T16:19:21;14.40;58.70
45233;DHT22;30969;51.052;17.056;2023-03-21T16:24:26;14.40;58.70
45233;DHT22;30969;51.052;17.056;2023-03-21T16:29:31;14.40;58.70
45233;DHT22;30969;51.052;17.056;2023-03-21T16:34:34;14.30;58.70
45233;DHT22;30969;51.052;17.056;2023-03-21T16:39:38;14.40;59.00
45233;DHT22;30969;51.052;17.056;2023-03-21T16:44:43;14.30;58.90
45233;DHT22;30969;51.052;17.056;2023-03-21T16:49:46;14.40;59.00
45233;DHT22;30969;51.052;17.056;2023-03-21T16:54:50;14.30;58.90
45233;DHT22;30969;51.052;17.056;2023-03-21T16:59:55;14.30;59.00
45233;DHT22;30969;51.052;17.056;2023-03-21T17:04:59;14.30;59.00
45233;DHT22;30969;51.052;17.056;2023-03-21T17:10:16;14.30;59.10
45233;DHT22;30969;51.052;17.056;2023-03-21T17:15:22;14.30;59.30
45233;DHT22;30969;51.052;17.056;2023-03-21T17:20:29;14.20;59.20
45233;DHT22;30969;51.052;17.056;2023-03-21T17:25:33;14.30;59.30
45233;DHT22;30969;51.052;17.056;2023-03-21T17:30:38;14.20;59.30
45233;DHT22;30969;51.052;17.056;2023-03-21T17:35:42;14.20;59.60
45233;DHT22;30969;51.052;17.056;2023-03-21T17:40:46;14.20;59.70
45233;DHT22;30969;51.052;17.056;2023-03-21T17:45:53;14.20;59.90
45233;DHT22;30969;51.052;17.056;2023-03-21T17:50:57;14.10;60.10
45233;DHT22;30969;51.052;17.056;2023-03-21T17:56:00;14.10;60.80
45233;DHT22;30969;51.052;17.056;2023-03-21T18:01:05;14.10;61.50
45233;DHT22;30969;51.052;17.056;2023-03-21T18:06:13;14.10;62.30
45233;DHT22;30969;51.052;17.056;2023-03-21T18:11:19;14.10;62.70
45233;DHT22;30969;51.052;17.056;2023-03-21T18:16:24;14.10;63.00
45233;DHT22;30969;51.052;17.056;2023-03-21T18:21:30;14.10;63.10
45233;DHT22;30969;51.052;17.056;2023-03-21T18:26:34;14.10;63.20
45233;DHT22;30969;51.052;17.056;2023-03-21T18:31:39;14.10;63.30
45233;DHT22;30969;51.052;17.056;2023-03-21T18:36:48;14.10;63.40
45233;DHT22;30969;51.052;17.056;2023-03-21T18:41:51;14.00;63.50
45233;DHT22;30969;51.052;17.056;2023-03-21T18:47:02;14.00;63.70
45233;DHT22;30969;51.052;17.056;2023-03-21T18:52:07;14.00;63.80
45233;DHT22;30969;51.052;17.056;2023-03-21T18:57:11;14.00;63.90
45233;DHT22;30969;51.052;17.056;2023-03-21T19:02:37;13.90;64.10
45233;DHT22;30969;51.052;17.056;2023-03-21T19:07:51;13.90;64.20
45233;DHT22;30969;51.052;17.056;2023-03-21T19:12:54;13.90;64.40
45233;DHT22;30969;51.052;17.056;2023-03-21T19:17:59;13.90;64.40
45233;DHT22;30969;51.052;17.056;2023-03-21T19:23:24;13.90;64.60
45233;DHT22;30969;51.052;17.056;2023-03-21T19:28:48;13.90;64.80
45233;DHT22;30969;51.052;17.056;2023-03-21T19:33:53;13.80;64.80
45233;DHT22;30969;51.052;17.056;2023-03-21T19:38:56;13.80;65.90
45233;DHT22;30969;51.052;17.056;2023-03-21T19:44:00;13.80;65.00
45233;DHT22;30969;51.052;17.056;2023-03-21T19:49:05;13.80;65.00
45233;DHT22;30969;51.052;17.056;2023-03-21T19:54:09;13.80;65.10
45233;DHT22;30969;51.052;17.056;2023-03-21T19:59:12;13.80;65.20
45233;DHT22;30969;51.052;17.056;2023-03-21T20:04:17;13.80;65.40
45233;DHT22;30969;51.052;17.056;2023-03-21T20:09:20;13.80;65.60
45233;DHT22;30969;51.052;17.056;2023-03-21T20:14:46;13.80;65.70
45233;DHT22;30969;51.052;17.056;2023-03-21T20:19:52;13.80;65.70
45233;DHT22;30969;51.052;17.056;2023-03-21T20:24:59;13.80;65.80
45233;DHT22;30969;51.052;17.056;2023-03-21T20:30:08;13.80;65.80
45233;DHT22;30969;51.052;17.056;2023-03-21T20:35:15;13.70;65.80
45233;DHT22;30969;51.052;17.056;2023-03-21T20:40:38;13.70;66.00
45233;DHT22;30969;51.052;17.056;2023-03-21T20:45:42;13.60;66.00
45233;DHT22;30969;51.052;17.056;2023-03-21T20:50:49;13.60;66.10
45233;DHT22;30969;51.052;17.056;2023-03-21T20:55:53;13.60;66.20
45233;DHT22;30969;51.052;17.056;2023-03-21T21:00:57;13.60;66.40
45233;DHT22;30969;51.052;17.056;2023-03-21T21:06:10;13.60;66.30
45233;DHT22;30969;51.052;17.056;2023-03-21T21:11:17;13.50;67.30
45233;DHT22;30969;51.052;17.056;2023-03-21T21:16:40;13.50;66.40
45233;DHT22;30969;51.052;17.056;2023-03-21T21:21:45;13.40;67.40
45233;DHT22;30969;51.052;17.056;2023-03-21T21:26:48;13.40;66.70
45233;DHT22;30969;51.052;17.056;2023-03-21T21:31:52;13.40;66.90
45233;DHT22;30969;51.052;17.056;2023-03-21T21:36:57;13.30;67.00
45233;DHT22;30969;51.052;17.056;2023-03-21T21:42:00;13.30;67.20
45233;DHT22;30969;51.052;17.056;2023-03-21T21:47:05;13.30;68.30
45233;DHT22;30969;51.052;17.056;2023-03-21T21:52:11;13.30;67.40
45233;DHT22;30969;51.052;17.056;2023-03-21T21:57:15;13.30;67.40
45233;DHT22;30969;51.052;17.056;2023-03-21T22:02:21;13.20;67.40
45233;DHT22;30969;51.052;17.056;2023-03-21T22:07:27;13.20;67.50
45233;DHT22;30969;51.052;17.056;2023-03-21T22:12:31;13.20;67.70
45233;DHT22;30969;51.052;17.056;2023-03-21T22:17:35;13.20;67.80
45233;DHT22;30969;51.052;17.056;2023-03-21T22:22:40;13.10;67.90
45233;DHT22;30969;51.052;17.056;2023-03-21T22:27:44;13.20;68.00
45233;DHT22;30969;51.052;17.056;2023-03-21T22:32:48;13.20;68.00
45233;DHT22;30969;51.052;17.056;2023-03-21T22:38:11;13.20;67.90
45233;DHT22;30969;51.052;17.056;2023-03-21T22:43:15;13.20;67.90
45233;DHT22;30969;51.052;17.056;2023-03-21T22:48:19;13.10;67.90
45233;DHT22;30969;51.052;17.056;2023-03-21T22:53:25;13.10;68.00
45233;DHT22;30969;51.052;17.056;2023-03-21T22:58:30;13.10;68.00
45233;DHT22;30969;51.052;17.056;2023-03-21T23:03:33;13.10;68.10
45233;DHT22;30969;51.052;17.056;2023-03-21T23:08:38;13.10;68.20
45233;DHT22;30969;51.052;17.056;2023-03-21T23:13:42;13.00;68.20
45233;DHT22;30969;51.052;17.056;2023-03-21T23:18:49;13.00;68.20
45233;DHT22;30969;51.052;17.056;2023-03-21T23:23:56;13.00;68.30
45233;DHT22;30969;51.052;17.056;2023-03-21T23:28:59;13.00;68.40
45233;DHT22;30969;51.052;17.056;2023-03-21T23:34:03;13.00;68.50
45233;DHT22;30969;51.052;17.056;2023-03-21T23:39:08;13.00;68.70
45233;DHT22;30969;51.052;17.056;2023-03-21T23:44:11;12.90;68.80
45233;DHT22;30969;51.052;17.056;2023-03-21T23:49:15;12.90;68.90
45233;DHT22;30969;51.052;17.056;2023-03-21T23:54:19;12.90;68.90
45233;DHT22;30969;51.052;17.056;2023-03-21T23:59:23;13.00;68.90
